EWG2480 EDDS-EGPH
Flight info
| Callsign | EWG2480 |
|---|---|
| Flight time | 1h 50m |
| Altitude | 38000 |
| Route | VESID4B VESID Y127 BANIM L608 LIRSU DCT DENUT L610 KOPUL DCT SABER DCT SIVDA DCT BETAX L613 LEHOC DCT INPIP |
| Aircraft | A319/M-SDE3FGHIRWY/LB1 |
Departure
| Time | 2026-05-06 11:26 |
|---|---|
| Airport | Stuttgart Airport (EDDS) |
Arrival
| Time | 2026-05-06 13:17 |
|---|---|
| Airport | Edinburgh Airport (EGPH) |
| Time | Latitude | Longitude | Altitude | Speed | Heading |
|---|---|---|---|---|---|
| 2026-05-06 11:00 | 48.68806 | 9.19732 | 1290 ft | 0 kts | 164° |
| 2026-05-06 11:17 | 48.68805 | 9.19733 | 1285 ft | 0 kts | 164° |
| 2026-05-06 11:18 | 48.68802 | 9.19734 | 1289 ft | 1 kts | 164° |
| 2026-05-06 11:18 | 48.68793 | 9.19738 | 1288 ft | 2 kts | 164° |
| 2026-05-06 11:18 | 48.68780 | 9.19744 | 1285 ft | 3 kts | 164° |
| 2026-05-06 11:19 | 48.68758 | 9.19754 | 1289 ft | 4 kts | 159° |
| 2026-05-06 11:19 | 48.68746 | 9.19792 | 1286 ft | 5 kts | 91° |
| 2026-05-06 11:19 | 48.68757 | 9.19846 | 1285 ft | 6 kts | 69° |
| 2026-05-06 11:19 | 48.68781 | 9.19912 | 1287 ft | 8 kts | 53° |
| 2026-05-06 11:20 | 48.68819 | 9.19984 | 1285 ft | 10 kts | 53° |
| 2026-05-06 11:20 | 48.68847 | 9.20087 | 1290 ft | 12 kts | 73° |
| 2026-05-06 11:20 | 48.68871 | 9.20213 | 1285 ft | 13 kts | 73° |
| 2026-05-06 11:20 | 48.68899 | 9.20357 | 1286 ft | 15 kts | 73° |
| 2026-05-06 11:21 | 48.68930 | 9.20520 | 1285 ft | 17 kts | 73° |
| 2026-05-06 11:21 | 48.68965 | 9.20700 | 1289 ft | 19 kts | 73° |
| 2026-05-06 11:21 | 48.69002 | 9.20898 | 1286 ft | 20 kts | 73° |
| 2026-05-06 11:21 | 48.69043 | 9.21109 | 1285 ft | 22 kts | 73° |
| 2026-05-06 11:22 | 48.69086 | 9.21336 | 1285 ft | 23 kts | 75° |
| 2026-05-06 11:22 | 48.69130 | 9.21575 | 1286 ft | 24 kts | 73° |
| 2026-05-06 11:22 | 48.69178 | 9.21828 | 1288 ft | 26 kts | 74° |
| 2026-05-06 11:22 | 48.69229 | 9.22096 | 1285 ft | 27 kts | 74° |
| 2026-05-06 11:23 | 48.69281 | 9.22371 | 1289 ft | 26 kts | 74° |
| 2026-05-06 11:23 | 48.69329 | 9.22622 | 1285 ft | 25 kts | 73° |
| 2026-05-06 11:23 | 48.69378 | 9.22877 | 1285 ft | 26 kts | 74° |
| 2026-05-06 11:23 | 48.69428 | 9.23143 | 1288 ft | 27 kts | 74° |
| 2026-05-06 11:24 | 48.69480 | 9.23416 | 1288 ft | 28 kts | 73° |
| 2026-05-06 11:24 | 48.69535 | 9.23698 | 1285 ft | 28 kts | 74° |
| 2026-05-06 11:24 | 48.69588 | 9.23980 | 1287 ft | 25 kts | 74° |
| 2026-05-06 11:24 | 48.69601 | 9.24182 | 1286 ft | 19 kts | 108° |
| 2026-05-06 11:25 | 48.69517 | 9.24309 | 1287 ft | 18 kts | 160° |
| 2026-05-06 11:25 | 48.69420 | 9.24346 | 1285 ft | 10 kts | 171° |
| 2026-05-06 11:25 | 48.69382 | 9.24274 | 1285 ft | 10 kts | 253° |
| 2026-05-06 11:25 | 48.69343 | 9.24071 | 1285 ft | 42 kts | 253° |
| 2026-05-06 11:26 | 48.69213 | 9.23374 | 1286 ft | 97 kts | 254° |
| 2026-05-06 11:26 | 48.68974 | 9.22135 | 1290 ft | 148 kts | 253° |
| 2026-05-06 11:26 | 48.68659 | 9.20473 | 1558 ft | 170 kts | 255° |
| 2026-05-06 11:26 | 48.68324 | 9.18757 | 2235 ft | 171 kts | 253° |
| 2026-05-06 11:27 | 48.67963 | 9.16980 | 2691 ft | 186 kts | 253° |
| 2026-05-06 11:27 | 48.67576 | 9.14985 | 2975 ft | 209 kts | 253° |
| 2026-05-06 11:27 | 48.67146 | 9.12765 | 3323 ft | 232 kts | 253° |
| 2026-05-06 11:27 | 48.67029 | 9.10278 | 3996 ft | 245 kts | 284° |
| 2026-05-06 11:28 | 48.67816 | 9.07970 | 4963 ft | 250 kts | 306° |
| 2026-05-06 11:28 | 48.69159 | 9.06295 | 5882 ft | 258 kts | 336° |
| 2026-05-06 11:28 | 48.70955 | 9.05537 | 6547 ft | 276 kts | 347° |
| 2026-05-06 11:28 | 48.72837 | 9.04766 | 7353 ft | 283 kts | 343° |
| 2026-05-06 11:29 | 48.74731 | 9.03873 | 8212 ft | 287 kts | 341° |
| 2026-05-06 11:29 | 48.76642 | 9.02910 | 9102 ft | 291 kts | 341° |
| 2026-05-06 11:29 | 48.78575 | 9.01909 | 9968 ft | 297 kts | 340° |
| 2026-05-06 11:29 | 48.80587 | 9.00817 | 10316 ft | 319 kts | 339° |
| 2026-05-06 11:30 | 48.82731 | 8.99557 | 10555 ft | 342 kts | 338° |
| 2026-05-06 11:30 | 48.85013 | 8.98175 | 10772 ft | 363 kts | 337° |
| 2026-05-06 11:30 | 48.87390 | 8.96733 | 11303 ft | 371 kts | 337° |
| 2026-05-06 11:30 | 48.89814 | 8.95276 | 11942 ft | 377 kts | 337° |
| 2026-05-06 11:31 | 48.92271 | 8.93812 | 12590 ft | 382 kts | 337° |
| 2026-05-06 11:31 | 48.94765 | 8.92335 | 13240 ft | 386 kts | 337° |
| 2026-05-06 11:31 | 48.97252 | 8.90863 | 13853 ft | 391 kts | 337° |
| 2026-05-06 11:31 | 48.99800 | 8.89347 | 14427 ft | 395 kts | 337° |
| 2026-05-06 11:32 | 49.02368 | 8.87814 | 15032 ft | 398 kts | 337° |
| 2026-05-06 11:32 | 49.04958 | 8.86260 | 15625 ft | 402 kts | 337° |
| 2026-05-06 11:32 | 49.07573 | 8.84688 | 16233 ft | 406 kts | 337° |
| 2026-05-06 11:32 | 49.10210 | 8.83100 | 16847 ft | 409 kts | 337° |
| 2026-05-06 11:33 | 49.12872 | 8.81497 | 17441 ft | 413 kts | 337° |
| 2026-05-06 11:33 | 49.15641 | 8.80239 | 18023 ft | 419 kts | 347° |
| 2026-05-06 11:33 | 49.18554 | 8.79717 | 18551 ft | 424 kts | 358° |
| 2026-05-06 11:33 | 49.21516 | 8.79936 | 19082 ft | 427 kts | 5° |
| 2026-05-06 11:34 | 49.24485 | 8.80371 | 19612 ft | 430 kts | 5° |
| 2026-05-06 11:34 | 49.27484 | 8.80797 | 20138 ft | 433 kts | 5° |
| 2026-05-06 11:34 | 49.30498 | 8.81208 | 20652 ft | 435 kts | 5° |
| 2026-05-06 11:34 | 49.33524 | 8.81614 | 21149 ft | 438 kts | 4° |
| 2026-05-06 11:35 | 49.36571 | 8.82019 | 21633 ft | 440 kts | 4° |
| 2026-05-06 11:35 | 49.39629 | 8.82428 | 22102 ft | 442 kts | 4° |
| 2026-05-06 11:35 | 49.42708 | 8.82843 | 22566 ft | 445 kts | 4° |
| 2026-05-06 11:35 | 49.45749 | 8.83258 | 23023 ft | 447 kts | 4° |
| 2026-05-06 11:36 | 49.48890 | 8.83689 | 23468 ft | 449 kts | 4° |
| 2026-05-06 11:36 | 49.52025 | 8.83823 | 23813 ft | 450 kts | 355° |
| 2026-05-06 11:36 | 49.55120 | 8.83121 | 24165 ft | 451 kts | 345° |
| 2026-05-06 11:36 | 49.58103 | 8.81597 | 24512 ft | 451 kts | 334° |
| 2026-05-06 11:37 | 49.60865 | 8.79320 | 24865 ft | 451 kts | 324° |
| 2026-05-06 11:37 | 49.63329 | 8.76351 | 25218 ft | 449 kts | 314° |
| 2026-05-06 11:37 | 49.65409 | 8.72840 | 25554 ft | 449 kts | 307° |
| 2026-05-06 11:37 | 49.66829 | 8.70201 | 25813 ft | 451 kts | 307° |
| 2026-05-06 11:38 | 49.68834 | 8.66465 | 26152 ft | 453 kts | 306° |
| 2026-05-06 11:38 | 49.70850 | 8.62710 | 26494 ft | 455 kts | 306° |
| 2026-05-06 11:38 | 49.73035 | 8.59129 | 26816 ft | 461 kts | 313° |
| 2026-05-06 11:38 | 49.75383 | 8.55740 | 27130 ft | 463 kts | 313° |
| 2026-05-06 11:39 | 49.77733 | 8.52332 | 27442 ft | 465 kts | 313° |
| 2026-05-06 11:39 | 49.80101 | 8.48887 | 27742 ft | 467 kts | 313° |
| 2026-05-06 11:39 | 49.82393 | 8.45312 | 28051 ft | 466 kts | 307° |
| 2026-05-06 11:39 | 49.84319 | 8.41296 | 28348 ft | 464 kts | 298° |
| 2026-05-06 11:40 | 49.85826 | 8.36911 | 28766 ft | 458 kts | 289° |
| 2026-05-06 11:40 | 49.86915 | 8.32309 | 29221 ft | 454 kts | 283° |
| 2026-05-06 11:40 | 49.87891 | 8.27662 | 29720 ft | 452 kts | 283° |
| 2026-05-06 11:40 | 49.88868 | 8.23037 | 30140 ft | 451 kts | 283° |
| 2026-05-06 11:41 | 49.89844 | 8.18416 | 30544 ft | 450 kts | 283° |
| 2026-05-06 11:41 | 49.90812 | 8.13814 | 30928 ft | 449 kts | 283° |
| 2026-05-06 11:41 | 49.91776 | 8.09205 | 31317 ft | 448 kts | 283° |
| 2026-05-06 11:41 | 49.92719 | 8.04668 | 31701 ft | 447 kts | 283° |
| 2026-05-06 11:42 | 49.93669 | 8.00083 | 32083 ft | 446 kts | 283° |
| 2026-05-06 11:42 | 49.94510 | 7.95459 | 32467 ft | 442 kts | 277° |
| 2026-05-06 11:42 | 49.94951 | 7.90776 | 32850 ft | 438 kts | 272° |
| 2026-05-06 11:42 | 49.95323 | 7.86074 | 33241 ft | 438 kts | 272° |
| 2026-05-06 11:43 | 49.95694 | 7.81384 | 33648 ft | 437 kts | 272° |
| 2026-05-06 11:43 | 49.96065 | 7.76698 | 34008 ft | 437 kts | 272° |
| 2026-05-06 11:43 | 49.96435 | 7.72020 | 34335 ft | 437 kts | 273° |
| 2026-05-06 11:44 | 49.97052 | 7.64217 | 34870 ft | 437 kts | 273° |
| 2026-05-06 11:44 | 49.97419 | 7.59518 | 35153 ft | 438 kts | 273° |
| 2026-05-06 11:44 | 49.97783 | 7.54819 | 35439 ft | 438 kts | 273° |
| 2026-05-06 11:44 | 49.98144 | 7.50120 | 35712 ft | 439 kts | 273° |
| 2026-05-06 11:45 | 49.98508 | 7.45411 | 35981 ft | 439 kts | 273° |
| 2026-05-06 11:45 | 49.98872 | 7.40693 | 36243 ft | 440 kts | 273° |
| 2026-05-06 11:45 | 49.99232 | 7.35975 | 36514 ft | 440 kts | 273° |
| 2026-05-06 11:45 | 49.99589 | 7.31246 | 36769 ft | 440 kts | 273° |
| 2026-05-06 11:46 | 49.99945 | 7.26507 | 37022 ft | 441 kts | 273° |
| 2026-05-06 11:46 | 50.00300 | 7.21777 | 37270 ft | 441 kts | 273° |
| 2026-05-06 11:46 | 50.00652 | 7.17037 | 37531 ft | 441 kts | 273° |
| 2026-05-06 11:46 | 50.01002 | 7.12294 | 37736 ft | 442 kts | 273° |
| 2026-05-06 11:47 | 50.01692 | 7.02869 | 37804 ft | 441 kts | 273° |
| 2026-05-06 11:47 | 50.02493 | 6.93421 | 37783 ft | 443 kts | 280° |
| 2026-05-06 11:48 | 50.04814 | 6.84484 | 37787 ft | 450 kts | 296° |
| 2026-05-06 11:48 | 50.07865 | 6.75960 | 37787 ft | 451 kts | 296° |
| 2026-05-06 11:49 | 50.10901 | 6.67414 | 37784 ft | 451 kts | 296° |
| 2026-05-06 11:49 | 50.13927 | 6.58834 | 37785 ft | 451 kts | 295° |
| 2026-05-06 11:50 | 50.16944 | 6.50247 | 37784 ft | 451 kts | 295° |
| 2026-05-06 11:50 | 50.19992 | 6.41691 | 37792 ft | 452 kts | 297° |
| 2026-05-06 11:51 | 50.23291 | 6.33316 | 37799 ft | 453 kts | 299° |
| 2026-05-06 11:51 | 50.26679 | 6.24999 | 37818 ft | 454 kts | 299° |
| 2026-05-06 11:52 | 50.30013 | 6.16626 | 37827 ft | 454 kts | 298° |
| 2026-05-06 11:52 | 50.33297 | 6.08189 | 37839 ft | 454 kts | 298° |
| 2026-05-06 11:53 | 50.36554 | 5.99784 | 37849 ft | 454 kts | 298° |
| 2026-05-06 11:53 | 50.39842 | 5.91324 | 37862 ft | 455 kts | 298° |
| 2026-05-06 11:54 | 50.43133 | 5.82843 | 37872 ft | 455 kts | 298° |
| 2026-05-06 11:54 | 50.46407 | 5.74356 | 37881 ft | 454 kts | 298° |
| 2026-05-06 11:55 | 50.49671 | 5.65865 | 37881 ft | 454 kts | 298° |
| 2026-05-06 11:55 | 50.52927 | 5.57385 | 37875 ft | 453 kts | 298° |
| 2026-05-06 11:56 | 50.56172 | 5.48894 | 37877 ft | 453 kts | 298° |
| 2026-05-06 11:56 | 50.59409 | 5.40395 | 37884 ft | 452 kts | 298° |
| 2026-05-06 11:57 | 50.62632 | 5.31890 | 37878 ft | 452 kts | 298° |
| 2026-05-06 11:57 | 50.65852 | 5.23380 | 37874 ft | 452 kts | 298° |
| 2026-05-06 11:58 | 50.69065 | 5.14856 | 37885 ft | 452 kts | 298° |
| 2026-05-06 11:58 | 50.72253 | 5.06388 | 37891 ft | 452 kts | 298° |
| 2026-05-06 11:59 | 50.75457 | 4.97847 | 37887 ft | 452 kts | 298° |
| 2026-05-06 11:59 | 50.78657 | 4.89279 | 37900 ft | 452 kts | 298° |
| 2026-05-06 12:00 | 50.81846 | 4.80706 | 37906 ft | 453 kts | 298° |
| 2026-05-06 12:00 | 50.85035 | 4.72117 | 37909 ft | 452 kts | 298° |
| 2026-05-06 12:01 | 50.88215 | 4.63518 | 37910 ft | 452 kts | 298° |
| 2026-05-06 12:01 | 50.91387 | 4.54902 | 37901 ft | 452 kts | 298° |
| 2026-05-06 12:02 | 50.94529 | 4.46340 | 37901 ft | 452 kts | 297° |
| 2026-05-06 12:02 | 50.97694 | 4.37707 | 37905 ft | 452 kts | 298° |
| 2026-05-06 12:03 | 51.00845 | 4.29070 | 37909 ft | 452 kts | 297° |
| 2026-05-06 12:03 | 51.03998 | 4.20410 | 37905 ft | 452 kts | 297° |
| 2026-05-06 12:04 | 51.07145 | 4.11738 | 37907 ft | 452 kts | 297° |
| 2026-05-06 12:04 | 51.10272 | 4.03075 | 37909 ft | 452 kts | 297° |
| 2026-05-06 12:05 | 51.13394 | 3.94395 | 37911 ft | 451 kts | 297° |
| 2026-05-06 12:05 | 51.16504 | 3.85722 | 37913 ft | 451 kts | 297° |
| 2026-05-06 12:06 | 51.19603 | 3.77038 | 37916 ft | 450 kts | 297° |
| 2026-05-06 12:06 | 51.22655 | 3.68330 | 37922 ft | 449 kts | 294° |
| 2026-05-06 12:07 | 51.24532 | 3.58973 | 37926 ft | 445 kts | 280° |
| 2026-05-06 12:07 | 51.25805 | 3.49300 | 37928 ft | 445 kts | 280° |
| 2026-05-06 12:08 | 51.27077 | 3.39622 | 37932 ft | 445 kts | 280° |
| 2026-05-06 12:08 | 51.28328 | 3.29950 | 37942 ft | 445 kts | 279° |
| 2026-05-06 12:09 | 51.29568 | 3.20263 | 37951 ft | 444 kts | 279° |
| 2026-05-06 12:09 | 51.30801 | 3.10592 | 37957 ft | 444 kts | 279° |
| 2026-05-06 12:10 | 51.32023 | 3.00918 | 37958 ft | 444 kts | 279° |
| 2026-05-06 12:10 | 51.33237 | 2.91243 | 37963 ft | 444 kts | 279° |
| 2026-05-06 12:11 | 51.34444 | 2.81559 | 37958 ft | 444 kts | 279° |
| 2026-05-06 12:11 | 51.35646 | 2.71858 | 37961 ft | 444 kts | 279° |
| 2026-05-06 12:12 | 51.36843 | 2.62166 | 37967 ft | 444 kts | 279° |
| 2026-05-06 12:12 | 51.38033 | 2.52460 | 37967 ft | 444 kts | 279° |
| 2026-05-06 12:13 | 51.39213 | 2.42748 | 37969 ft | 444 kts | 279° |
| 2026-05-06 12:13 | 51.40374 | 2.33103 | 37972 ft | 444 kts | 279° |
| 2026-05-06 12:14 | 51.41540 | 2.23374 | 37971 ft | 444 kts | 279° |
| 2026-05-06 12:14 | 51.42721 | 2.13656 | 37973 ft | 444 kts | 279° |
| 2026-05-06 12:15 | 51.43910 | 2.03946 | 37979 ft | 444 kts | 279° |
| 2026-05-06 12:15 | 51.45083 | 1.94227 | 37967 ft | 444 kts | 279° |
| 2026-05-06 12:16 | 51.46227 | 1.84504 | 37968 ft | 443 kts | 279° |
| 2026-05-06 12:16 | 51.47350 | 1.74785 | 37970 ft | 443 kts | 279° |
| 2026-05-06 12:17 | 51.48460 | 1.65055 | 37975 ft | 443 kts | 279° |
| 2026-05-06 12:17 | 51.49557 | 1.55403 | 37977 ft | 442 kts | 279° |
| 2026-05-06 12:18 | 51.50661 | 1.45688 | 37973 ft | 442 kts | 279° |
| 2026-05-06 12:18 | 51.51758 | 1.35966 | 37968 ft | 442 kts | 279° |
| 2026-05-06 12:19 | 51.52836 | 1.26255 | 37975 ft | 442 kts | 279° |
| 2026-05-06 12:19 | 51.54652 | 1.16844 | 37974 ft | 444 kts | 296° |
| 2026-05-06 12:20 | 51.56314 | 1.12658 | 37979 ft | 446 kts | 307° |
| 2026-05-06 12:20 | 51.58429 | 1.09015 | 37976 ft | 448 kts | 317° |
| 2026-05-06 12:20 | 51.63454 | 1.03036 | 37969 ft | 449 kts | 322° |
| 2026-05-06 12:21 | 51.68531 | 0.97134 | 37973 ft | 450 kts | 322° |
| 2026-05-06 12:21 | 51.73497 | 0.91001 | 37978 ft | 449 kts | 318° |
| 2026-05-06 12:22 | 51.78205 | 0.84391 | 37986 ft | 448 kts | 316° |
| 2026-05-06 12:22 | 51.82856 | 0.77673 | 37989 ft | 448 kts | 316° |
| 2026-05-06 12:23 | 51.87553 | 0.71038 | 37995 ft | 448 kts | 317° |
| 2026-05-06 12:23 | 51.92250 | 0.64512 | 38006 ft | 447 kts | 317° |
| 2026-05-06 12:24 | 51.96966 | 0.57929 | 38009 ft | 447 kts | 317° |
| 2026-05-06 12:24 | 52.01664 | 0.51313 | 38010 ft | 447 kts | 317° |
| 2026-05-06 12:25 | 52.06350 | 0.44690 | 38016 ft | 446 kts | 317° |
| 2026-05-06 12:25 | 52.11031 | 0.38064 | 38016 ft | 446 kts | 317° |
| 2026-05-06 12:26 | 52.15706 | 0.31430 | 38021 ft | 446 kts | 317° |
| 2026-05-06 12:26 | 52.20380 | 0.24786 | 38018 ft | 445 kts | 317° |
| 2026-05-06 12:27 | 52.25034 | 0.18141 | 38018 ft | 445 kts | 316° |
| 2026-05-06 12:27 | 52.28901 | 0.12590 | 38017 ft | 445 kts | 316° |
| 2026-05-06 12:28 | 52.33548 | 0.05915 | 38016 ft | 445 kts | 316° |
| 2026-05-06 12:28 | 52.38213 | -0.00749 | 38016 ft | 445 kts | 317° |
| 2026-05-06 12:29 | 52.42933 | -0.07325 | 38014 ft | 445 kts | 317° |
| 2026-05-06 12:29 | 52.47658 | -0.13895 | 38017 ft | 445 kts | 317° |
| 2026-05-06 12:30 | 52.52359 | -0.20507 | 38015 ft | 445 kts | 317° |
| 2026-05-06 12:30 | 52.57048 | -0.27142 | 38009 ft | 445 kts | 317° |
| 2026-05-06 12:31 | 52.61729 | -0.33790 | 38008 ft | 445 kts | 317° |
| 2026-05-06 12:31 | 52.66420 | -0.40448 | 38004 ft | 445 kts | 317° |
| 2026-05-06 12:32 | 52.71105 | -0.47123 | 38015 ft | 445 kts | 317° |
| 2026-05-06 12:32 | 52.75777 | -0.53804 | 38016 ft | 444 kts | 316° |
| 2026-05-06 12:33 | 52.80416 | -0.60449 | 38033 ft | 444 kts | 316° |
| 2026-05-06 12:33 | 52.85110 | -0.67195 | 38035 ft | 444 kts | 316° |
| 2026-05-06 12:34 | 52.89737 | -0.73865 | 38034 ft | 444 kts | 316° |
| 2026-05-06 12:34 | 52.94386 | -0.80590 | 38035 ft | 443 kts | 316° |
| 2026-05-06 12:35 | 52.99030 | -0.87325 | 38037 ft | 443 kts | 316° |
| 2026-05-06 12:35 | 53.04163 | -0.93034 | 38037 ft | 447 kts | 329° |
| 2026-05-06 12:36 | 53.09602 | -0.98020 | 38047 ft | 447 kts | 328° |
| 2026-05-06 12:36 | 53.15037 | -1.03053 | 38046 ft | 447 kts | 328° |
| 2026-05-06 12:37 | 53.20459 | -1.08095 | 38045 ft | 447 kts | 328° |
| 2026-05-06 12:37 | 53.25896 | -1.13148 | 38050 ft | 447 kts | 328° |
| 2026-05-06 12:38 | 53.31326 | -1.18214 | 38053 ft | 447 kts | 328° |
| 2026-05-06 12:38 | 53.36759 | -1.23282 | 38062 ft | 447 kts | 328° |
| 2026-05-06 12:39 | 53.42164 | -1.28327 | 38064 ft | 447 kts | 328° |
| 2026-05-06 12:39 | 53.47595 | -1.33427 | 38066 ft | 447 kts | 328° |
| 2026-05-06 12:40 | 53.53013 | -1.38557 | 38071 ft | 447 kts | 328° |
| 2026-05-06 12:40 | 53.58432 | -1.43693 | 38074 ft | 447 kts | 328° |
| 2026-05-06 12:41 | 53.63847 | -1.48828 | 38075 ft | 446 kts | 328° |
| 2026-05-06 12:41 | 53.69250 | -1.53979 | 38074 ft | 446 kts | 328° |
| 2026-05-06 12:42 | 53.74477 | -1.59551 | 38074 ft | 442 kts | 317° |
| 2026-05-06 12:42 | 53.79024 | -1.66516 | 38073 ft | 441 kts | 315° |
| 2026-05-06 12:43 | 53.83560 | -1.73495 | 38070 ft | 441 kts | 315° |
| 2026-05-06 12:43 | 53.88095 | -1.80480 | 38071 ft | 440 kts | 315° |
| 2026-05-06 12:44 | 53.92600 | -1.87437 | 38075 ft | 440 kts | 315° |
| 2026-05-06 12:44 | 53.97117 | -1.94444 | 38078 ft | 440 kts | 315° |
| 2026-05-06 12:45 | 54.01681 | -2.01383 | 38075 ft | 441 kts | 320° |
| 2026-05-06 12:46 | 54.09561 | -2.09554 | 38081 ft | 442 kts | 327° |
| 2026-05-06 12:46 | 54.14874 | -2.14878 | 38090 ft | 442 kts | 327° |
| 2026-05-06 12:47 | 54.20172 | -2.20198 | 38084 ft | 442 kts | 327° |
| 2026-05-06 12:47 | 54.25469 | -2.25544 | 38090 ft | 442 kts | 326° |
| 2026-05-06 12:48 | 54.30754 | -2.30905 | 38078 ft | 441 kts | 326° |
| 2026-05-06 12:48 | 54.36000 | -2.36246 | 38084 ft | 441 kts | 326° |
| 2026-05-06 12:48 | 54.38642 | -2.38937 | 37958 ft | 443 kts | 326° |
| 2026-05-06 12:49 | 54.41283 | -2.41633 | 37697 ft | 440 kts | 326° |
| 2026-05-06 12:49 | 54.43911 | -2.44321 | 37422 ft | 438 kts | 326° |
| 2026-05-06 12:49 | 54.46520 | -2.46992 | 37147 ft | 435 kts | 326° |
| 2026-05-06 12:49 | 54.49114 | -2.49646 | 36885 ft | 433 kts | 326° |
| 2026-05-06 12:50 | 54.51694 | -2.52285 | 36625 ft | 430 kts | 326° |
| 2026-05-06 12:50 | 54.54259 | -2.54909 | 36371 ft | 427 kts | 326° |
| 2026-05-06 12:50 | 54.56809 | -2.57521 | 36120 ft | 425 kts | 326° |
| 2026-05-06 12:50 | 54.59338 | -2.60122 | 35871 ft | 422 kts | 326° |
| 2026-05-06 12:51 | 54.61852 | -2.62720 | 35631 ft | 420 kts | 326° |
| 2026-05-06 12:51 | 54.64346 | -2.65305 | 35220 ft | 419 kts | 326° |
| 2026-05-06 12:51 | 54.66852 | -2.67906 | 34716 ft | 418 kts | 326° |
| 2026-05-06 12:51 | 54.69326 | -2.70470 | 34385 ft | 413 kts | 326° |
| 2026-05-06 12:52 | 54.71778 | -2.73014 | 33984 ft | 409 kts | 326° |
| 2026-05-06 12:52 | 54.74207 | -2.75540 | 33517 ft | 405 kts | 326° |
| 2026-05-06 12:52 | 54.76616 | -2.78049 | 33053 ft | 402 kts | 326° |
| 2026-05-06 12:52 | 54.79002 | -2.80537 | 32581 ft | 398 kts | 326° |
| 2026-05-06 12:53 | 54.81356 | -2.82998 | 31866 ft | 392 kts | 326° |
| 2026-05-06 12:53 | 54.83671 | -2.85429 | 31157 ft | 387 kts | 326° |
| 2026-05-06 12:53 | 54.85963 | -2.87838 | 30462 ft | 383 kts | 327° |
| 2026-05-06 12:53 | 54.88283 | -2.90061 | 29738 ft | 379 kts | 334° |
| 2026-05-06 12:54 | 54.90709 | -2.91819 | 28967 ft | 376 kts | 335° |
| 2026-05-06 12:54 | 54.93081 | -2.93521 | 28247 ft | 372 kts | 335° |
| 2026-05-06 12:54 | 54.95455 | -2.95229 | 27567 ft | 367 kts | 334° |
| 2026-05-06 12:54 | 54.97808 | -2.96928 | 26888 ft | 363 kts | 334° |
| 2026-05-06 12:55 | 55.00125 | -2.98611 | 26223 ft | 359 kts | 334° |
| 2026-05-06 12:55 | 55.02419 | -3.00281 | 25557 ft | 355 kts | 334° |
| 2026-05-06 12:55 | 55.04687 | -3.01933 | 24902 ft | 351 kts | 334° |
| 2026-05-06 12:55 | 55.06933 | -3.03571 | 24259 ft | 348 kts | 334° |
| 2026-05-06 12:56 | 55.09157 | -3.05194 | 23604 ft | 344 kts | 333° |
| 2026-05-06 12:56 | 55.11355 | -3.06799 | 22842 ft | 341 kts | 333° |
| 2026-05-06 12:56 | 55.13531 | -3.08387 | 22112 ft | 337 kts | 334° |
| 2026-05-06 12:56 | 55.15689 | -3.09965 | 21391 ft | 334 kts | 334° |
| 2026-05-06 12:57 | 55.17820 | -3.11529 | 20705 ft | 331 kts | 334° |
| 2026-05-06 12:57 | 55.19929 | -3.13079 | 20033 ft | 327 kts | 334° |
| 2026-05-06 12:57 | 55.22022 | -3.14619 | 19369 ft | 324 kts | 334° |
| 2026-05-06 12:57 | 55.24093 | -3.16142 | 18733 ft | 322 kts | 334° |
| 2026-05-06 12:58 | 55.26148 | -3.17653 | 18072 ft | 319 kts | 334° |
| 2026-05-06 12:58 | 55.28188 | -3.19138 | 17368 ft | 317 kts | 336° |
| 2026-05-06 12:58 | 55.30330 | -3.20046 | 16672 ft | 317 kts | 351° |
| 2026-05-06 12:58 | 55.32530 | -3.20019 | 16023 ft | 317 kts | 2° |
| 2026-05-06 12:59 | 55.34715 | -3.19666 | 15388 ft | 314 kts | 2° |
| 2026-05-06 12:59 | 55.36876 | -3.19323 | 14772 ft | 310 kts | 2° |
| 2026-05-06 12:59 | 55.39016 | -3.18987 | 14171 ft | 307 kts | 2° |
| 2026-05-06 12:59 | 55.41134 | -3.18656 | 13567 ft | 304 kts | 2° |
| 2026-05-06 13:00 | 55.43228 | -3.18331 | 12898 ft | 301 kts | 3° |
| 2026-05-06 13:00 | 55.45274 | -3.18012 | 12641 ft | 286 kts | 3° |
| 2026-05-06 13:00 | 55.47224 | -3.17704 | 12269 ft | 278 kts | 3° |
| 2026-05-06 13:00 | 55.49138 | -3.17402 | 11789 ft | 275 kts | 3° |
| 2026-05-06 13:01 | 55.51037 | -3.17106 | 11288 ft | 273 kts | 3° |
| 2026-05-06 13:01 | 55.52920 | -3.16811 | 10782 ft | 271 kts | 3° |
| 2026-05-06 13:01 | 55.54792 | -3.16519 | 10281 ft | 269 kts | 4° |
| 2026-05-06 13:01 | 55.56655 | -3.16229 | 9771 ft | 268 kts | 4° |
| 2026-05-06 13:02 | 55.58503 | -3.15938 | 9238 ft | 266 kts | 4° |
| 2026-05-06 13:02 | 55.60337 | -3.15646 | 8751 ft | 263 kts | 4° |
| 2026-05-06 13:02 | 55.62147 | -3.15357 | 8294 ft | 260 kts | 4° |
| 2026-05-06 13:02 | 55.63940 | -3.15071 | 7823 ft | 257 kts | 4° |
| 2026-05-06 13:03 | 55.65713 | -3.14793 | 7372 ft | 254 kts | 4° |
| 2026-05-06 13:03 | 55.67452 | -3.15040 | 7138 ft | 249 kts | 341° |
| 2026-05-06 13:03 | 55.68924 | -3.16551 | 7076 ft | 245 kts | 316° |
| 2026-05-06 13:03 | 55.69875 | -3.18996 | 7004 ft | 241 kts | 291° |
| 2026-05-06 13:04 | 55.70142 | -3.21895 | 6936 ft | 240 kts | 266° |
| 2026-05-06 13:04 | 55.69763 | -3.24737 | 6868 ft | 241 kts | 252° |
| 2026-05-06 13:04 | 55.69250 | -3.27566 | 6745 ft | 240 kts | 252° |
| 2026-05-06 13:04 | 55.68740 | -3.30357 | 6655 ft | 229 kts | 253° |
| 2026-05-06 13:05 | 55.68255 | -3.33011 | 6577 ft | 225 kts | 253° |
| 2026-05-06 13:05 | 55.67776 | -3.35637 | 6514 ft | 224 kts | 252° |
| 2026-05-06 13:05 | 55.67298 | -3.38260 | 6438 ft | 223 kts | 252° |
| 2026-05-06 13:05 | 55.66829 | -3.40841 | 6366 ft | 223 kts | 252° |
| 2026-05-06 13:06 | 55.66352 | -3.43451 | 6295 ft | 223 kts | 252° |
| 2026-05-06 13:06 | 55.65873 | -3.46060 | 6231 ft | 223 kts | 252° |
| 2026-05-06 13:06 | 55.65394 | -3.48667 | 6163 ft | 223 kts | 252° |
| 2026-05-06 13:06 | 55.64915 | -3.51277 | 6088 ft | 222 kts | 252° |
| 2026-05-06 13:07 | 55.64643 | -3.53967 | 5986 ft | 223 kts | 271° |
| 2026-05-06 13:07 | 55.65004 | -3.56623 | 5893 ft | 224 kts | 295° |
| 2026-05-06 13:07 | 55.65962 | -3.58793 | 5786 ft | 225 kts | 317° |
| 2026-05-06 13:07 | 55.67128 | -3.60649 | 5653 ft | 226 kts | 316° |
| 2026-05-06 13:08 | 55.68287 | -3.62519 | 5545 ft | 226 kts | 316° |
| 2026-05-06 13:08 | 55.69456 | -3.64389 | 5426 ft | 226 kts | 318° |
| 2026-05-06 13:08 | 55.70660 | -3.66181 | 5308 ft | 223 kts | 320° |
| 2026-05-06 13:08 | 55.71832 | -3.67866 | 5195 ft | 211 kts | 320° |
| 2026-05-06 13:09 | 55.72936 | -3.69443 | 5109 ft | 198 kts | 320° |
| 2026-05-06 13:09 | 55.73998 | -3.70966 | 4992 ft | 196 kts | 320° |
| 2026-05-06 13:09 | 55.75057 | -3.72492 | 4886 ft | 195 kts | 320° |
| 2026-05-06 13:09 | 55.76067 | -3.74056 | 4787 ft | 195 kts | 315° |
| 2026-05-06 13:10 | 55.77033 | -3.75746 | 4687 ft | 195 kts | 313° |
| 2026-05-06 13:10 | 55.78078 | -3.77264 | 4587 ft | 196 kts | 331° |
| 2026-05-06 13:10 | 55.79388 | -3.77865 | 4502 ft | 196 kts | 359° |
| 2026-05-06 13:10 | 55.80706 | -3.77368 | 4413 ft | 195 kts | 26° |
| 2026-05-06 13:11 | 55.81756 | -3.75892 | 4324 ft | 192 kts | 53° |
| 2026-05-06 13:11 | 55.82469 | -3.73895 | 4265 ft | 192 kts | 60° |
| 2026-05-06 13:11 | 55.83165 | -3.71873 | 4136 ft | 191 kts | 60° |
| 2026-05-06 13:11 | 55.83858 | -3.69862 | 4029 ft | 191 kts | 60° |
| 2026-05-06 13:12 | 55.84548 | -3.67856 | 3945 ft | 190 kts | 60° |
| 2026-05-06 13:12 | 55.85005 | -3.66525 | 3797 ft | 189 kts | 60° |
| 2026-05-06 13:12 | 55.85690 | -3.64529 | 3570 ft | 188 kts | 60° |
| 2026-05-06 13:12 | 55.86370 | -3.62546 | 3312 ft | 187 kts | 60° |
| 2026-05-06 13:13 | 55.87048 | -3.60569 | 3054 ft | 186 kts | 60° |
| 2026-05-06 13:13 | 55.87719 | -3.58610 | 2808 ft | 185 kts | 60° |
| 2026-05-06 13:13 | 55.88388 | -3.56656 | 2544 ft | 184 kts | 60° |
| 2026-05-06 13:13 | 55.89052 | -3.54714 | 2283 ft | 183 kts | 60° |
| 2026-05-06 13:14 | 55.89704 | -3.52807 | 2044 ft | 175 kts | 60° |
| 2026-05-06 13:14 | 55.90313 | -3.51023 | 1806 ft | 162 kts | 60° |
| 2026-05-06 13:14 | 55.90875 | -3.49376 | 1592 ft | 150 kts | 60° |
| 2026-05-06 13:14 | 55.91407 | -3.47817 | 1388 ft | 144 kts | 61° |
| 2026-05-06 13:15 | 55.91915 | -3.46339 | 1171 ft | 139 kts | 60° |
| 2026-05-06 13:15 | 55.92424 | -3.44861 | 1024 ft | 136 kts | 60° |
| 2026-05-06 13:15 | 55.92906 | -3.43445 | 818 ft | 134 kts | 58° |
| 2026-05-06 13:15 | 55.93383 | -3.42015 | 594 ft | 134 kts | 59° |
| 2026-05-06 13:16 | 55.93856 | -3.40609 | 379 ft | 131 kts | 59° |
| 2026-05-06 13:16 | 55.94329 | -3.39224 | 215 ft | 130 kts | 59° |
| 2026-05-06 13:16 | 55.94780 | -3.37901 | 121 ft | 115 kts | 59° |
| 2026-05-06 13:16 | 55.95118 | -3.36894 | 115 ft | 70 kts | 59° |
| 2026-05-06 13:17 | 55.95263 | -3.36458 | 108 ft | 17 kts | 78° |
| 2026-05-06 13:17 | 55.95179 | -3.36337 | 109 ft | 15 kts | 150° |
| 2026-05-06 13:17 | 55.95111 | -3.36345 | 109 ft | 9 kts | 232° |
| 2026-05-06 13:17 | 55.95058 | -3.36394 | 111 ft | 10 kts | 176° |
| 2026-05-06 13:18 | 55.94996 | -3.36448 | 110 ft | 12 kts | 240° |
| 2026-05-06 13:18 | 55.94948 | -3.36550 | 110 ft | 9 kts | 173° |
| 2026-05-06 13:18 | 55.94913 | -3.36503 | 108 ft | 8 kts | 147° |
| 2026-05-06 13:18 | 55.94901 | -3.36490 | 108 ft | 0 kts | 146° |